Time;durP1;ratioP1;P1;durP2;ratioP2;P2;SDS_P1;SDS_P2;PMS_P1;PMS_P2;Temp;Humidity;BMP_temperature;BMP_pressure;BME280_temperature;BME280_humidity;BME280_pressure;Samples;Min_cycle;Max_cycle;Signal;HPM_P1;HPM_P2
2022/12/12 00:01:30;;;;;;;;;;;;;;;39.51;nan;100805.13;5073763;28;19931;-58
2022/12/12 00:03:56;;;;;;;;;;;;;;;39.19;nan;100794.91;5073899;28;19920;-58
2022/12/12 00:06:24;;;;;;;;;;;;;;;39.46;nan;100800.00;5073983;28;20341;-59
2022/12/12 00:08:51;;;;;;;;;;;;;;;40.21;nan;100794.31;5073854;28;19965;-59
2022/12/12 00:11:18;;;;;;;;;;;;;;;40.30;nan;100786.63;5073742;28;19920;-58
2022/12/12 00:13:44;;;;;;;;;;;;;;;40.85;nan;100775.41;5073953;28;20366;-60
2022/12/12 00:16:10;;;;;;;;;;;;;;;40.42;nan;100794.31;5073668;28;20449;-58
2022/12/12 00:18:37;;;;;;;;;;;;;;;40.62;nan;100804.47;5073875;28;19921;-58
2022/12/12 00:21:04;;;;;;;;;;;;;;;39.55;nan;100828.56;5069983;28;20325;-58
2022/12/12 00:23:31;;;;;;;;;;;;;;;39.54;nan;100846.88;5073651;28;19921;-59
2022/12/12 00:25:59;;;;;;;;;;;;;;;40.41;nan;100861.09;5055590;28;19958;-60
2022/12/12 00:28:26;;;;;;;;;;;;;;;40.80;nan;100870.09;5073613;28;20382;-60
2022/12/12 00:30:52;;;;;;;;;;;;;;;38.78;nan;100901.81;5073181;28;19924;-60
2022/12/12 00:33:19;;;;;;;;;;;;;;;37.20;nan;100924.50;5073380;28;19929;-58
2022/12/12 00:35:50;;;;;;;;;;;;;;;38.12;nan;100928.97;5073106;28;19917;-61
2022/12/12 00:38:21;;;;;;;;;;;;;;;38.12;nan;100922.50;5073446;28;20452;-59
2022/12/12 00:40:48;;;;;;;;;;;;;;;38.73;nan;100921.47;5061131;28;19924;-59
2022/12/12 00:43:14;;;;;;;;;;;;;;;37.35;nan;100899.47;5073226;28;19917;-59
2022/12/12 00:45:40;;;;;;;;;;;;;;;37.32;nan;100900.31;5073177;28;20014;-60
2022/12/12 00:48:07;;;;;;;;;;;;;;;36.74;nan;100896.47;5073063;28;19927;-59
2022/12/12 00:50:34;;;;;;;;;;;;;;;36.79;nan;100898.75;5069643;28;19920;-59
2022/12/12 00:53:00;;;;;;;;;;;;;;;36.58;nan;100909.34;5072932;28;19917;-60
2022/12/12 00:55:27;;;;;;;;;;;;;;;35.93;nan;100903.47;5059860;28;19921;-58
2022/12/12 00:57:53;;;;;;;;;;;;;;;37.15;nan;100890.22;5069691;28;19921;-60
2022/12/12 01:00:20;;;;;;;;;;;;;;;36.34;nan;100898.59;5072890;28;20675;-57
2022/12/12 01:02:46;;;;;;;;;;;;;;;37.49;nan;100899.06;5073045;28;19921;-60
2022/12/12 01:05:13;;;;;;;;;;;;;;;37.36;nan;100900.25;5072804;28;19966;-60
2022/12/12 01:07:40;;;;;;;;;;;;;;;37.57;nan;100888.34;5072827;28;19926;-60
2022/12/12 01:10:07;;;;;;;;;;;;;;;37.97;nan;100891.69;5072759;28;19920;-59
2022/12/12 01:12:34;;;;;;;;;;;;;;;37.58;nan;100872.91;5073047;28;19920;-60
2022/12/12 01:15:00;;;;;;;;;;;;;;;36.62;nan;100864.75;5072851;28;19917;-58
2022/12/12 01:17:27;;;;;;;;;;;;;;;37.97;nan;100854.00;5060154;28;19920;-60
2022/12/12 01:19:53;;;;;;;;;;;;;;;38.42;nan;100853.84;5065929;28;20374;-60
2022/12/12 01:22:19;;;;;;;;;;;;;;;38.57;nan;100852.13;5072773;28;19947;-59
2022/12/12 01:24:45;;;;;;;;;;;;;;;38.59;nan;100872.34;5072848;28;20026;-59
2022/12/12 01:27:12;;;;;;;;;;;;;;;38.47;nan;100886.56;5072236;28;19928;-60
2022/12/12 01:29:38;;;;;;;;;;;;;;;35.99;nan;100886.78;5072866;28;19920;-60
2022/12/12 01:32:04;;;;;;;;;;;;;;;35.48;nan;100894.59;5072548;28;19966;-58
2022/12/12 01:34:31;;;;;;;;;;;;;;;36.65;nan;100885.75;5072538;28;20287;-59
2022/12/12 01:36:57;;;;;;;;;;;;;;;38.11;nan;100881.94;5072725;28;20278;-58
2022/12/12 01:39:23;;;;;;;;;;;;;;;38.86;nan;100877.59;5066097;28;20020;-59
2022/12/12 01:41:50;;;;;;;;;;;;;;;37.84;nan;100879.47;5068819;28;20290;-60
2022/12/12 01:44:34;;;;;;;;;;;;;;;37.39;nan;100871.81;5049597;28;19917;-59
2022/12/12 01:47:00;;;;;;;;;;;;;;;37.28;nan;100878.97;5076429;28;19920;-59
2022/12/12 01:49:27;;;;;;;;;;;;;;;36.53;nan;100892.91;5075778;28;20303;-59
2022/12/12 01:51:59;;;;;;;;;;;;;;;35.50;nan;100909.09;5073460;28;19920;-60
2022/12/12 01:54:28;;;;;;;;;;;;;;;34.43;nan;100910.75;5076611;28;20398;-59
2022/12/12 01:56:57;;;;;;;;;;;;;;;34.69;nan;100905.56;5076244;28;19973;-60
2022/12/12 01:59:24;;;;;;;;;;;;;;;34.91;nan;100914.53;5065458;28;20452;-60
2022/12/12 02:01:52;;;;;;;;;;;;;;;33.93;nan;100925.47;5072920;28;19921;-60
2022/12/12 02:04:19;;;;;;;;;;;;;;;34.88;nan;100930.31;5076323;28;19925;-59
2022/12/12 02:06:46;;;;;;;;;;;;;;;32.29;nan;100939.09;5063768;28;20363;-60
2022/12/12 02:09:15;;;;;;;;;;;;;;;32.53;nan;100938.19;5076306;28;20329;-59
2022/12/12 02:11:43;;;;;;;;;;;;;;;34.19;nan;100928.78;5072119;28;19951;-58
2022/12/12 02:14:09;;;;;;;;;;;;;;;32.60;nan;100921.25;5076192;28;19928;-59
2022/12/12 02:16:54;;;;;;;;;;;;;;;33.35;nan;100924.38;5076169;28;20282;-60
2022/12/12 02:19:39;;;;;;;;;;;;;;;32.36;nan;100930.63;5075962;28;19974;-58
2022/12/12 02:22:17;;;;;;;;;;;;;;;33.93;nan;100939.56;5073111;28;19931;-58
2022/12/12 02:25:02;;;;;;;;;;;;;;;32.24;nan;100931.03;5076009;28;20271;-58
2022/12/12 02:27:28;;;;;;;;;;;;;;;30.76;nan;100950.38;5075867;28;20019;-57
2022/12/12 02:29:57;;;;;;;;;;;;;;;30.54;nan;100975.53;5075776;28;19971;-59
2022/12/12 02:32:29;;;;;;;;;;;;;;;30.88;nan;100980.84;5075894;28;19928;-59
2022/12/12 02:35:02;;;;;;;;;;;;;;;30.61;nan;100969.97;5075646;28;19947;-59
2022/12/12 02:37:28;;;;;;;;;;;;;;;29.96;nan;100987.59;5075688;28;19924;-58
2022/12/12 02:40:24;;;;;;;;;;;;;;;30.01;nan;100990.03;5075470;28;19917;-60
2022/12/12 02:42:56;;;;;;;;;;;;;;;29.06;nan;101013.19;5062446;28;20379;-60
2022/12/12 02:45:52;;;;;;;;;;;;;;;29.99;nan;101016.88;5061034;28;19920;-59
2022/12/12 02:48:31;;;;;;;;;;;;;;;30.36;nan;101027.94;5046306;28;19932;-60
2022/12/12 02:50:59;;;;;;;;;;;;;;;29.50;nan;101034.88;5072084;28;19921;-59
2022/12/12 02:53:25;;;;;;;;;;;;;;;31.19;nan;101027.06;5075487;28;20014;-58
2022/12/12 02:56:02;;;;;;;;;;;;;;;30.71;nan;101038.56;5074965;28;19921;-60
2022/12/12 02:58:30;;;;;;;;;;;;;;;30.10;nan;101042.97;5089974;28;19963;-58
2022/12/12 03:01:09;;;;;;;;;;;;;;;30.51;nan;101045.63;5084600;28;19952;-57
2022/12/12 03:09:31;;;;;;;;;;;;;;;31.61;nan;101033.97;5082861;28;20329;-60
2022/12/12 03:12:07;;;;;;;;;;;;;;;32.16;nan;101040.78;5091978;28;19920;-60
2022/12/12 03:14:51;;;;;;;;;;;;;;;29.63;nan;101041.00;5081103;28;19923;-59
2022/12/12 03:17:41;;;;;;;;;;;;;;;29.96;nan;101037.25;5083045;28;19947;-58
2022/12/12 03:20:10;;;;;;;;;;;;;;;32.03;nan;101050.03;5084812;28;19932;-59
2022/12/12 03:22:42;;;;;;;;;;;;;;;30.46;nan;101062.81;5088682;28;20377;-59
2022/12/12 03:25:08;;;;;;;;;;;;;;;31.81;nan;101050.06;5084315;28;20155;-59
2022/12/12 03:27:34;;;;;;;;;;;;;;;31.01;nan;101048.66;5080638;28;19923;-59
2022/12/12 03:30:10;;;;;;;;;;;;;;;31.23;nan;101061.56;5091457;28;19924;-59
2022/12/12 03:32:45;;;;;;;;;;;;;;;29.59;nan;101056.94;5081030;28;19920;-58
2022/12/12 03:35:18;;;;;;;;;;;;;;;30.17;nan;101059.88;5083447;28;19920;-57
2022/12/12 03:37:50;;;;;;;;;;;;;;;29.06;nan;101049.59;5090624;28;19971;-58
2022/12/12 03:40:39;;;;;;;;;;;;;;;28.69;nan;101055.09;5078396;28;19926;-58
2022/12/12 03:43:09;;;;;;;;;;;;;;;30.24;nan;101064.72;5083928;28;19971;-58
2022/12/12 03:45:35;;;;;;;;;;;;;;;29.12;nan;101052.88;5089159;28;19916;-58
2022/12/12 03:48:01;;;;;;;;;;;;;;;28.42;nan;101067.53;5078028;28;19924;-57
2022/12/12 03:50:41;;;;;;;;;;;;;;;29.11;nan;101051.25;5091465;28;20362;-58
2022/12/12 03:53:14;;;;;;;;;;;;;;;29.11;nan;101042.84;5083712;28;19932;-58
2022/12/12 03:56:00;;;;;;;;;;;;;;;29.03;nan;101022.38;5089772;28;19924;-58
2022/12/12 03:58:29;;;;;;;;;;;;;;;28.53;nan;101040.50;5079045;28;19954;-59
2022/12/12 04:00:57;;;;;;;;;;;;;;;29.18;nan;101020.53;5085471;28;19927;-58
2022/12/12 04:03:34;;;;;;;;;;;;;;;29.27;nan;101037.84;5087051;28;20358;-58
2022/12/12 04:14:23;;;;;;;;;;;;;;;30.84;nan;101053.00;5063074;28;19920;-58
2022/12/12 04:16:59;;;;;;;;;;;;;;;29.62;nan;101051.38;5085873;28;19995;-57
2022/12/12 04:26:37;;;;;;;;;;;;;;;30.19;nan;101054.66;5083020;28;19994;-59
2022/12/12 04:28:28;;;;;;;;;;;;;;;30.38;nan;101045.97;5046444;28;19920;-59
2022/12/12 04:30:56;;;;;;;;;;;;;;;29.68;nan;101032.22;5084844;28;19944;-58
2022/12/12 04:33:28;;;;;;;;;;;;;;;30.12;nan;101032.19;5086672;28;19920;-59
2022/12/12 04:35:56;;;;;;;;;;;;;;;28.44;nan;101035.22;5077060;28;19959;-58
2022/12/12 04:38:23;;;;;;;;;;;;;;;29.30;nan;101041.84;5089246;28;20294;-58
2022/12/12 04:40:53;;;;;;;;;;;;;;;29.88;nan;101038.38;5081778;28;19920;-57
2022/12/12 04:43:19;;;;;;;;;;;;;;;29.43;nan;101029.16;5081133;28;19924;-57
2022/12/12 04:45:48;;;;;;;;;;;;;;;27.97;nan;101028.09;5089465;28;20011;-59
2022/12/12 04:48:16;;;;;;;;;;;;;;;29.17;nan;101027.31;5076701;28;19920;-58
2022/12/12 04:50:47;;;;;;;;;;;;;;;29.34;nan;101028.69;5090264;28;19920;-59
2022/12/12 04:53:16;;;;;;;;;;;;;;;29.21;nan;101024.56;5081784;28;19927;-59
2022/12/12 04:55:45;;;;;;;;;;;;;;;28.51;nan;101010.13;5073429;28;19966;-60
2022/12/12 04:58:12;;;;;;;;;;;;;;;28.91;nan;101008.66;5072929;28;19924;-59
2022/12/12 05:00:50;;;;;;;;;;;;;;;28.95;nan;101006.69;5073038;28;20508;-59
2022/12/12 05:03:39;;;;;;;;;;;;;;;28.80;nan;101010.50;5073166;28;19921;-58
2022/12/12 05:06:08;;;;;;;;;;;;;;;28.18;nan;101018.41;5048410;28;19932;-59
2022/12/12 05:08:37;;;;;;;;;;;;;;;28.92;nan;100996.28;5073108;28;19923;-58
2022/12/12 05:11:04;;;;;;;;;;;;;;;28.27;nan;100999.44;5072756;28;19956;-59
2022/12/12 05:13:37;;;;;;;;;;;;;;;28.85;nan;100991.38;5073014;28;20017;-59
2022/12/12 05:16:11;;;;;;;;;;;;;;;27.87;nan;101014.78;5056857;28;19943;-59
2022/12/12 05:18:38;;;;;;;;;;;;;;;28.23;nan;101018.91;5072950;28;19977;-59
2022/12/12 05:21:05;;;;;;;;;;;;;;;29.60;nan;101013.75;5069305;28;20367;-60
2022/12/12 05:23:31;;;;;;;;;;;;;;;28.08;nan;101003.13;5072726;28;19928;-59
2022/12/12 05:25:58;;;;;;;;;;;;;;;28.11;nan;101009.94;5072432;28;19917;-60
2022/12/12 05:28:24;;;;;;;;;;;;;;;28.36;nan;101013.13;5072362;28;19921;-59
2022/12/12 05:30:50;;;;;;;;;;;;;;;29.09;nan;101026.44;5070757;28;19916;-57
2022/12/12 05:33:17;;;;;;;;;;;;;;;30.11;nan;101022.16;5045577;28;19944;-59
2022/12/12 05:35:43;;;;;;;;;;;;;;;28.86;nan;101020.19;5022220;28;20027;-57
2022/12/12 05:38:10;;;;;;;;;;;;;;;29.58;nan;101033.75;5040074;28;19921;-60
2022/12/12 05:40:36;;;;;;;;;;;;;;;30.23;nan;101035.88;5044691;28;19971;-59
2022/12/12 05:43:02;;;;;;;;;;;;;;;30.28;nan;101029.06;5061388;28;20015;-59
2022/12/12 05:45:28;;;;;;;;;;;;;;;29.70;nan;101019.44;5069543;28;19927;-59
2022/12/12 05:47:56;;;;;;;;;;;;;;;30.34;nan;101028.31;5068992;28;20003;-60
2022/12/12 05:50:22;;;;;;;;;;;;;;;29.57;nan;101029.31;5065863;28;19924;-59
2022/12/12 05:52:49;;;;;;;;;;;;;;;29.48;nan;101012.06;5069085;28;19932;-57
2022/12/12 05:55:15;;;;;;;;;;;;;;;29.58;nan;101005.72;5069162;28;19917;-59
2022/12/12 05:57:42;;;;;;;;;;;;;;;29.68;nan;101015.41;5082272;28;19936;-59
2022/12/12 06:00:08;;;;;;;;;;;;;;;29.39;nan;101014.34;5072623;28;19924;-59
2022/12/12 06:02:34;;;;;;;;;;;;;;;28.32;nan;101032.63;5084998;28;19925;-59
2022/12/12 06:05:01;;;;;;;;;;;;;;;28.92;nan;101027.06;5074585;28;20017;-58
2022/12/12 06:07:28;;;;;;;;;;;;;;;29.93;nan;101036.03;5071548;28;19962;-58
2022/12/12 06:09:54;;;;;;;;;;;;;;;28.92;nan;101043.84;5088551;28;19916;-56
2022/12/12 06:12:21;;;;;;;;;;;;;;;28.07;nan;101040.63;5092001;28;20378;-57
2022/12/12 06:14:48;;;;;;;;;;;;;;;28.46;nan;101055.22;5083939;28;20344;-57
2022/12/12 06:17:14;;;;;;;;;;;;;;;28.37;nan;101057.50;5073608;28;19921;-58
2022/12/12 06:19:42;;;;;;;;;;;;;;;27.82;nan;101073.75;5084969;28;19916;-58
2022/12/12 06:22:08;;;;;;;;;;;;;;;29.07;nan;101076.38;5088267;28;19967;-58
2022/12/12 06:24:37;;;;;;;;;;;;;;;28.33;nan;101075.38;5073411;28;19967;-58
2022/12/12 06:27:08;;;;;;;;;;;;;;;29.14;nan;101058.88;5073410;28;20098;-59
2022/12/12 06:29:39;;;;;;;;;;;;;;;27.88;nan;101063.09;5072431;28;19921;-57
2022/12/12 06:32:12;;;;;;;;;;;;;;;27.96;nan;101076.78;5078129;28;19916;-59
2022/12/12 06:34:41;;;;;;;;;;;;;;;27.81;nan;101077.72;5077491;28;19927;-61
2022/12/12 06:37:08;;;;;;;;;;;;;;;27.78;nan;101084.06;5075321;28;19912;-59
2022/12/12 06:39:35;;;;;;;;;;;;;;;28.46;nan;101077.56;5077260;28;19920;-60
2022/12/12 06:42:01;;;;;;;;;;;;;;;27.64;nan;101076.22;5079390;28;19916;-59
2022/12/12 06:44:28;;;;;;;;;;;;;;;27.82;nan;101070.97;5077848;28;19924;-61
2022/12/12 06:46:54;;;;;;;;;;;;;;;28.77;nan;101075.59;5077482;28;19920;-60
2022/12/12 06:49:20;;;;;;;;;;;;;;;28.30;nan;101088.13;5077458;28;19927;-59
2022/12/12 06:51:47;;;;;;;;;;;;;;;29.45;nan;101082.81;5077054;28;20395;-61
2022/12/12 06:54:16;;;;;;;;;;;;;;;29.34;nan;101085.50;5079519;28;19972;-58
2022/12/12 06:56:42;;;;;;;;;;;;;;;28.46;nan;101096.34;5074683;28;19921;-61
2022/12/12 06:59:12;;;;;;;;;;;;;;;28.90;nan;101079.78;5067959;28;20403;-60
2022/12/12 07:01:38;;;;;;;;;;;;;;;28.54;nan;101093.25;5067340;28;19921;-60
2022/12/12 07:04:05;;;;;;;;;;;;;;;29.15;nan;101088.47;5068172;28;20025;-60
2022/12/12 07:06:31;;;;;;;;;;;;;;;29.55;nan;101090.53;5068201;28;19975;-60
2022/12/12 07:08:59;;;;;;;;;;;;;;;28.50;nan;101086.00;5067133;28;19916;-61
2022/12/12 07:11:26;;;;;;;;;;;;;;;29.69;nan;101067.47;5072296;28;19928;-60
2022/12/12 07:13:53;;;;;;;;;;;;;;;29.38;nan;101074.31;5058391;28;19917;-60
2022/12/12 07:16:19;;;;;;;;;;;;;;;28.99;nan;101057.91;5071159;28;19924;-59
2022/12/12 07:18:46;;;;;;;;;;;;;;;27.79;nan;101057.75;5062579;28;19916;-60
2022/12/12 07:21:14;;;;;;;;;;;;;;;26.42;nan;101074.13;5071454;28;20010;-61
2022/12/12 07:23:40;;;;;;;;;;;;;;;26.89;nan;101059.19;5059746;28;19923;-60
2022/12/12 07:26:09;;;;;;;;;;;;;;;28.85;nan;101052.09;5071172;28;20015;-59
2022/12/12 07:28:36;;;;;;;;;;;;;;;27.54;nan;101053.69;5060788;28;20329;-60
2022/12/12 07:31:14;;;;;;;;;;;;;;;27.67;nan;101055.16;5064575;28;19970;-59
2022/12/12 07:33:41;;;;;;;;;;;;;;;27.65;nan;101051.94;5052028;28;20007;-59
2022/12/12 07:36:07;;;;;;;;;;;;;;;27.99;nan;101056.47;5057960;28;19923;-60
2022/12/12 07:38:34;;;;;;;;;;;;;;;28.10;nan;101044.66;5068536;28;19971;-59
2022/12/12 07:41:04;;;;;;;;;;;;;;;28.00;nan;101041.31;5061671;28;20003;-59
2022/12/12 07:43:30;;;;;;;;;;;;;;;26.40;nan;101048.63;5054355;28;20401;-59
2022/12/12 07:45:56;;;;;;;;;;;;;;;26.83;nan;101043.94;5070903;28;19916;-59
2022/12/12 07:48:22;;;;;;;;;;;;;;;27.75;nan;101028.94;5057602;28;20343;-59
2022/12/12 07:50:49;;;;;;;;;;;;;;;28.13;nan;101027.94;5071072;28;19917;-57
2022/12/12 07:53:15;;;;;;;;;;;;;;;26.33;nan;101053.97;5062352;28;19920;-58
2022/12/12 07:55:41;;;;;;;;;;;;;;;28.50;nan;101036.47;5069461;28;19916;-59
2022/12/12 07:58:08;;;;;;;;;;;;;;;28.47;nan;101048.44;5069262;28;19920;-59
2022/12/12 08:00:34;;;;;;;;;;;;;;;28.73;nan;101027.19;5088131;28;19927;-60
2022/12/12 08:03:00;;;;;;;;;;;;;;;28.61;nan;101045.03;5083704;28;20014;-59
2022/12/12 08:05:27;;;;;;;;;;;;;;;27.80;nan;101050.16;5080913;28;19924;-57
2022/12/12 08:07:54;;;;;;;;;;;;;;;25.02;nan;101037.53;5084804;28;20267;-60
2022/12/12 08:10:20;;;;;;;;;;;;;;;25.81;nan;101057.91;5090132;28;19970;-59
2022/12/12 08:12:46;;;;;;;;;;;;;;;26.15;nan;101059.13;5081793;28;19920;-58
2022/12/12 08:15:15;;;;;;;;;;;;;;;25.70;nan;101048.50;5082624;28;19924;-59
2022/12/12 08:17:41;;;;;;;;;;;;;;;26.32;nan;101035.66;5089442;28;19920;-59
2022/12/12 08:20:08;;;;;;;;;;;;;;;26.44;nan;101032.78;5076966;28;19924;-58
2022/12/12 08:22:35;;;;;;;;;;;;;;;27.39;nan;101035.88;5087828;28;19917;-56
2022/12/12 08:25:01;;;;;;;;;;;;;;;27.63;nan;101037.50;5083504;28;19923;-57
2022/12/12 08:27:27;;;;;;;;;;;;;;;27.58;nan;101079.69;5080443;28;20337;-56
2022/12/12 08:29:54;;;;;;;;;;;;;;;28.74;nan;101051.19;5090326;28;19920;-56
2022/12/12 08:32:20;;;;;;;;;;;;;;;26.71;nan;101069.97;5077550;28;19923;-57
2022/12/12 08:34:46;;;;;;;;;;;;;;;26.56;nan;101062.47;5085741;28;19921;-57
2022/12/12 08:37:13;;;;;;;;;;;;;;;26.68;nan;101067.94;5076594;28;19924;-58
2022/12/12 08:39:39;;;;;;;;;;;;;;;29.98;nan;101052.50;5082204;28;19924;-58
2022/12/12 08:42:05;;;;;;;;;;;;;;;29.21;nan;101052.53;5076626;28;20378;-57
2022/12/12 08:44:32;;;;;;;;;;;;;;;30.91;nan;101051.06;5087815;28;19928;-58
2022/12/12 08:46:58;;;;;;;;;;;;;;;30.66;nan;101039.72;5082724;28;20362;-58
2022/12/12 08:49:24;;;;;;;;;;;;;;;28.59;nan;101053.00;5080411;28;19921;-58
2022/12/12 08:51:50;;;;;;;;;;;;;;;29.94;nan;101050.84;5089223;28;19923;-58
2022/12/12 08:54:17;;;;;;;;;;;;;;;29.46;nan;101050.84;5073559;28;19990;-57
2022/12/12 08:56:43;;;;;;;;;;;;;;;30.38;nan;101037.56;5072987;28;19927;-58
2022/12/12 08:59:09;;;;;;;;;;;;;;;31.24;nan;101035.13;5072905;28;19928;-58
2022/12/12 09:01:36;;;;;;;;;;;;;;;31.63;nan;101023.13;5072972;28;19924;-58
2022/12/12 09:04:02;;;;;;;;;;;;;;;29.63;nan;101041.00;5072986;28;19927;-59
2022/12/12 09:06:28;;;;;;;;;;;;;;;30.23;nan;101035.06;5072948;28;20375;-59
2022/12/12 09:08:56;;;;;;;;;;;;;;;27.84;nan;101035.09;5072817;28;19928;-59
2022/12/12 09:11:22;;;;;;;;;;;;;;;26.33;nan;101048.41;5072941;28;19924;-58
2022/12/12 09:13:49;;;;;;;;;;;;;;;30.04;nan;101041.75;5072769;28;19987;-59
2022/12/12 09:16:15;;;;;;;;;;;;;;;29.26;nan;101044.59;5055042;28;20298;-58
2022/12/12 09:18:42;;;;;;;;;;;;;;;28.81;nan;101040.88;5072911;28;19921;-58
2022/12/12 09:21:08;;;;;;;;;;;;;;;27.79;nan;101040.97;5069170;28;19917;-58
2022/12/12 09:23:35;;;;;;;;;;;;;;;27.80;nan;101039.81;5072826;28;19960;-59
2022/12/12 09:26:05;;;;;;;;;;;;;;;28.19;nan;101034.84;5072704;28;20038;-57
2022/12/12 09:28:32;;;;;;;;;;;;;;;29.04;nan;101037.16;5072671;28;19974;-58
2022/12/12 09:30:58;;;;;;;;;;;;;;;28.08;nan;101041.44;5071673;28;19912;-58
2022/12/12 09:33:24;;;;;;;;;;;;;;;26.99;nan;101027.94;5065529;28;19924;-58
2022/12/12 09:36:01;;;;;;;;;;;;;;;27.53;nan;101015.78;5072586;28;20007;-57
2022/12/12 09:38:27;;;;;;;;;;;;;;;28.14;nan;101017.56;5072651;28;19927;-58
2022/12/12 09:41:01;;;;;;;;;;;;;;;26.90;nan;100989.09;5062556;28;19924;-59
2022/12/12 09:43:30;;;;;;;;;;;;;;;26.78;nan;101000.44;5072564;28;19926;-58
2022/12/12 09:45:58;;;;;;;;;;;;;;;27.87;nan;100991.63;5072459;28;19917;-58
2022/12/12 09:48:37;;;;;;;;;;;;;;;27.89;nan;101006.84;5072501;28;20393;-58
2022/12/12 09:51:04;;;;;;;;;;;;;;;26.97;nan;100994.03;5069139;28;19925;-58
2022/12/12 09:53:30;;;;;;;;;;;;;;;27.19;nan;100990.47;5072586;28;19920;-59
2022/12/12 09:56:22;;;;;;;;;;;;;;;26.64;nan;100998.16;5072496;28;19920;-58
2022/12/12 09:59:11;;;;;;;;;;;;;;;28.03;nan;100995.06;5048996;28;19960;-58
2022/12/12 10:01:49;;;;;;;;;;;;;;;27.76;nan;100985.06;5071746;28;19921;-58
2022/12/12 10:04:31;;;;;;;;;;;;;;;28.96;nan;100991.53;5056459;28;19966;-59
2022/12/12 10:07:09;;;;;;;;;;;;;;;27.59;nan;100998.34;5076134;28;19921;-59
2022/12/12 10:09:53;;;;;;;;;;;;;;;27.43;nan;100996.84;5076187;28;19936;-59
2022/12/12 10:12:20;;;;;;;;;;;;;;;26.43;nan;100990.16;5076300;28;19986;-58
2022/12/12 10:14:47;;;;;;;;;;;;;;;25.67;nan;100987.94;5076343;28;19969;-59
2022/12/12 10:17:16;;;;;;;;;;;;;;;26.02;nan;100994.38;5075973;28;19931;-57
2022/12/12 10:19:51;;;;;;;;;;;;;;;27.10;nan;100992.69;5058100;28;19921;-59
2022/12/12 10:22:35;;;;;;;;;;;;;;;26.63;nan;100990.97;5059902;28;20290;-59
2022/12/12 10:25:21;;;;;;;;;;;;;;;28.31;nan;101000.28;5075915;28;19920;-58
2022/12/12 10:27:53;;;;;;;;;;;;;;;29.02;nan;101000.38;5064563;28;19921;-58
2022/12/12 10:30:19;;;;;;;;;;;;;;;29.48;nan;101007.25;5059784;28;19920;-59
2022/12/12 10:32:52;;;;;;;;;;;;;;;27.20;nan;101022.78;5075842;28;19920;-58
2022/12/12 10:35:24;;;;;;;;;;;;;;;27.88;nan;101033.16;5075746;28;19924;-58
2022/12/12 10:38:06;;;;;;;;;;;;;;;27.38;nan;101035.06;5075554;28;19991;-59
2022/12/12 10:40:32;;;;;;;;;;;;;;;29.01;nan;101032.34;5075619;28;20370;-57
2022/12/12 10:43:17;;;;;;;;;;;;;;;29.64;nan;101035.00;5075611;28;19923;-59
2022/12/12 10:45:55;;;;;;;;;;;;;;;28.99;nan;101046.72;5075431;28;19921;-58
2022/12/12 10:48:22;;;;;;;;;;;;;;;28.75;nan;101041.63;5075486;28;19920;-58
2022/12/12 10:50:51;;;;;;;;;;;;;;;29.32;nan;101045.88;5075198;28;19958;-59
2022/12/12 10:53:19;;;;;;;;;;;;;;;28.01;nan;101050.53;5075229;28;20377;-59
2022/12/12 10:55:52;;;;;;;;;;;;;;;29.65;nan;101052.63;5075468;28;19924;-58
2022/12/12 10:58:23;;;;;;;;;;;;;;;29.24;nan;101048.97;5079126;28;19920;-59
2022/12/12 11:00:49;;;;;;;;;;;;;;;29.33;nan;101044.69;5087150;28;19925;-58
2022/12/12 11:03:23;;;;;;;;;;;;;;;29.36;nan;101054.31;5087051;28;19922;-59
2022/12/12 11:05:49;;;;;;;;;;;;;;;29.52;nan;101046.50;5078857;28;19924;-58
2022/12/12 11:08:25;;;;;;;;;;;;;;;29.21;nan;101046.94;5062261;28;19938;-59
2022/12/12 11:11:00;;;;;;;;;;;;;;;28.31;nan;101045.00;5085480;28;19927;-59
2022/12/12 11:13:27;;;;;;;;;;;;;;;28.50;nan;101053.25;5088357;28;20332;-59
2022/12/12 11:16:00;;;;;;;;;;;;;;;28.21;nan;101048.44;5078274;28;19973;-61
2022/12/12 11:18:28;;;;;;;;;;;;;;;27.97;nan;101058.84;5090111;28;20405;-60
2022/12/12 11:21:03;;;;;;;;;;;;;;;28.64;nan;101063.84;5083663;28;19916;-59
2022/12/12 11:23:29;;;;;;;;;;;;;;;27.16;nan;101052.59;5081335;28;20332;-60
2022/12/12 11:25:57;;;;;;;;;;;;;;;26.87;nan;101055.97;5091524;28;19916;-59
2022/12/12 11:28:25;;;;;;;;;;;;;;;27.50;nan;101052.84;5079419;28;19920;-58
2022/12/12 11:30:53;;;;;;;;;;;;;;;26.31;nan;101061.91;5086540;28;19917;-59
2022/12/12 11:33:22;;;;;;;;;;;;;;;27.84;nan;101051.88;5087439;28;20020;-57
2022/12/12 11:35:58;;;;;;;;;;;;;;;27.53;nan;101049.28;5078297;28;19916;-57
2022/12/12 11:38:27;;;;;;;;;;;;;;;27.29;nan;101037.31;5064150;28;19959;-58
2022/12/12 11:40:58;;;;;;;;;;;;;;;27.79;nan;101034.59;5085981;28;19916;-57
2022/12/12 11:43:26;;;;;;;;;;;;;;;27.17;nan;101031.09;5087643;28;19920;-58
2022/12/12 11:46:00;;;;;;;;;;;;;;;27.60;nan;101029.84;5077983;28;20015;-59
2022/12/12 11:48:32;;;;;;;;;;;;;;;28.65;nan;101029.09;5089543;28;20363;-60
2022/12/12 11:50:58;;;;;;;;;;;;;;;28.20;nan;101021.66;5083778;28;19927;-58
2022/12/12 11:53:25;;;;;;;;;;;;;;;27.24;nan;101029.22;5081225;28;19924;-59
2022/12/12 11:56:10;;;;;;;;;;;;;;;27.21;nan;101029.16;5091065;28;19920;-59
2022/12/12 11:58:45;;;;;;;;;;;;;;;27.78;nan;101032.97;5080751;28;19920;-59
2022/12/12 12:01:29;;;;;;;;;;;;;;;28.08;nan;101025.47;5089617;28;19928;-60
2022/12/12 12:04:10;;;;;;;;;;;;;;;27.71;nan;101042.06;5077544;28;19959;-59
2022/12/12 12:06:36;;;;;;;;;;;;;;;27.44;nan;101029.19;5087970;28;20019;-59
2022/12/12 12:09:21;;;;;;;;;;;;;;;28.11;nan;101030.31;5083856;28;19916;-58
2022/12/12 12:11:47;;;;;;;;;;;;;;;27.85;nan;101028.34;5077695;28;19967;-58
2022/12/12 12:14:32;;;;;;;;;;;;;;;28.96;nan;101013.09;5090624;28;19917;-58
2022/12/12 12:16:58;;;;;;;;;;;;;;;29.50;nan;101011.66;5083088;28;19995;-58
2022/12/12 12:19:27;;;;;;;;;;;;;;;28.31;nan;101019.84;5080733;28;19917;-59
2022/12/12 12:21:56;;;;;;;;;;;;;;;27.89;nan;101014.41;5087474;28;19924;-59
2022/12/12 12:24:52;;;;;;;;;;;;;;;27.21;nan;101021.59;5078307;28;19951;-59
2022/12/12 12:27:23;;;;;;;;;;;;;;;25.24;nan;101031.38;5071962;28;20386;-59
2022/12/12 12:29:50;;;;;;;;;;;;;;;24.95;nan;101027.75;5090410;28;19924;-58
2022/12/12 12:32:28;;;;;;;;;;;;;;;24.34;nan;101032.72;5077280;28;19999;-58
2022/12/12 12:35:08;;;;;;;;;;;;;;;25.91;nan;101029.53;5084654;28;19924;-59
2022/12/12 12:37:54;;;;;;;;;;;;;;;26.95;nan;101027.06;5088060;28;19920;-58
2022/12/12 12:40:26;;;;;;;;;;;;;;;28.17;nan;101028.00;5054283;28;19932;-58
2022/12/12 12:43:00;;;;;;;;;;;;;;;29.21;nan;101018.94;5080784;28;19920;-59
2022/12/12 12:45:43;;;;;;;;;;;;;;;27.04;nan;101028.47;5080315;28;19920;-58
2022/12/12 12:48:14;;;;;;;;;;;;;;;28.72;nan;101025.56;5089593;28;19924;-59
2022/12/12 12:50:43;;;;;;;;;;;;;;;29.55;nan;101030.91;5080053;28;20374;-58
2022/12/12 12:53:15;;;;;;;;;;;;;;;29.79;nan;101042.31;5081890;28;19955;-58
2022/12/12 12:55:44;;;;;;;;;;;;;;;29.11;nan;101049.25;5073152;28;19921;-58
2022/12/12 12:58:19;;;;;;;;;;;;;;;29.99;nan;101037.28;5088677;28;19928;-60
2022/12/12 13:00:57;;;;;;;;;;;;;;;29.68;nan;101047.03;5079565;28;20011;-58
2022/12/12 13:03:27;;;;;;;;;;;;;;;28.24;nan;101064.44;5079056;28;19920;-60
2022/12/12 13:05:56;;;;;;;;;;;;;;;26.91;nan;101057.66;5088680;28;19916;-59
2022/12/12 13:08:25;;;;;;;;;;;;;;;26.79;nan;101067.00;5076177;28;19954;-60
2022/12/12 13:10:54;;;;;;;;;;;;;;;25.24;nan;101070.31;5083952;28;20317;-59
2022/12/12 13:13:31;;;;;;;;;;;;;;;27.31;nan;101060.06;5084610;28;19935;-57
2022/12/12 13:16:12;;;;;;;;;;;;;;;28.58;nan;101060.56;5075023;28;19928;-59
2022/12/12 13:18:40;;;;;;;;;;;;;;;27.79;nan;101080.09;5083757;28;19968;-58
2022/12/12 13:21:10;;;;;;;;;;;;;;;25.19;nan;101084.50;5080900;28;19924;-59
2022/12/12 13:23:45;;;;;;;;;;;;;;;26.69;nan;101083.47;5075888;28;20391;-59
2022/12/12 13:26:18;;;;;;;;;;;;;;;27.50;nan;101078.75;5088572;28;19928;-59
2022/12/12 13:28:48;;;;;;;;;;;;;;;27.20;nan;101080.56;5079537;28;19927;-57
2022/12/12 13:31:24;;;;;;;;;;;;;;;27.85;nan;101073.03;5079034;28;19920;-59
2022/12/12 13:33:54;;;;;;;;;;;;;;;28.29;nan;101069.75;5088296;28;19920;-59